This is the latest recevied weather packets stored in our database for station/object GJ7DNI-13. If no packets are shown the sender has not sent any weather packets the latest 10 day(s).
| Time | Temp. | Humidity | Pressure | Rain* | Wind** | Luminosity | Snow |
|---|---|---|---|---|---|---|---|
| 1777895699 | 17.78° C | 65% | 1012.1 hPa | 0 mm | - | 626 W/m² | - |
| 1777895399 | 17.22° C | 68% | 1012.2 hPa | 0 mm | - | 520 W/m² | - |
| 1777895099 | 16.67° C | 68% | 1012.2 hPa | 0 mm | - | 250 W/m² | - |
| 1777894848 | 16.67° C | 69% | 1012.3 hPa | 0 mm | - | 248 W/m² | - |
| 1777894799 | 16.67° C | 69% | 1012.3 hPa | 0 mm | - | 248 W/m² | - |
| 1777894499 | 16.67° C | 70% | 1012.3 hPa | 0 mm | - | 236 W/m² | - |
| 1777894199 | 16.11° C | 70% | 1012.4 hPa | 0 mm | - | 250 W/m² | - |
| 1777893899 | 16.67° C | 67% | 1012.4 hPa | 0 mm | - | 246 W/m² | - |
| 1777893748 | 12.22° C | 86% | 1010.7 hPa | 0 mm | - | 0 W/m² | - |
| 1777893745 | 12.22° C | 86% | 1010.8 hPa | 0 mm | - | 0 W/m² | - |
| 1777893599 | 17.22° C | 65% | 1012.4 hPa | 0 mm | - | 236 W/m² | - |
| 1777893299 | 17.78° C | 66% | 1012.4 hPa | 0 mm | - | 229 W/m² | - |
| 1777892999 | 17.22° C | 67% | 1012.3 hPa | 0 mm | - | 195 W/m² | - |
| 1777892699 | 17.78° C | 64% | 1012.3 hPa | 0 mm | - | 304 W/m² | - |
| 1777892399 | 17.78° C | 64% | 1012.3 hPa | 0 mm | - | 930 W/m² | - |
| 1777892099 | 16.11° C | 70% | 1012.2 hPa | 0 mm | - | 635 W/m² | - |
| 1777891799 | 15.56° C | 70% | 1012.2 hPa | 0 mm | - | 719 W/m² | - |
| 1777891499 | 15.56° C | 71% | 1012.2 hPa | 0 mm | - | 728 W/m² | - |
| 1777891199 | 15.56° C | 71% | 1012.3 hPa | 0 mm | - | 807 W/m² | - |
| 1777890899 | 15.56° C | 72% | 1012.4 hPa | 0 mm | - | 684 W/m² | - |
| 1777890599 | 15.56° C | 72% | 1012.4 hPa | 0 mm | - | 563 W/m² | - |
| 1777890299 | 15.56° C | 70% | 1012.4 hPa | 0 mm | - | 494 W/m² | - |
| 1777889999 | 16.67° C | 67% | 1012.3 hPa | 0 mm | - | 237 W/m² | - |
| 1777889699 | 16.67° C | 67% | 1012.2 hPa | 0 mm | - | 619 W/m² | - |
| 1777889399 | 15.56° C | 72% | 1012.2 hPa | 0 mm | - | 779 W/m² | - |
* Rain latest hour (hover to see other rain measurements)
** Current wind speed in m/s (hover to see current wind gust speed)